Time;durP1;ratioP1;P1;durP2;ratioP2;P2;SDS_P1;SDS_P2;PMS_P1;PMS_P2;Temp;Humidity;BMP_temperature;BMP_pressure;BME280_temperature;BME280_humidity;BME280_pressure;Samples;Min_cycle;Max_cycle;Signal;HPM_P1;HPM_P2
2023/03/21 00:01:28;;;;;;;9.98;3.38;;;;;;;;;;5085937;28;20411;-76
2023/03/21 00:03:58;;;;;;;9.80;2.92;;;;;;;;;;5087587;28;20044;-76
2023/03/21 00:06:30;;;;;;;11.32;3.13;;;;;;;;;;5087502;28;20055;-74
2023/03/21 00:09:00;;;;;;;11.20;3.30;;;;;;;;;;5086184;28;20040;-74
2023/03/21 00:11:32;;;;;;;12.25;3.53;;;;;;;;;;5085946;28;20051;-75
2023/03/21 00:14:02;;;;;;;13.30;4.32;;;;;;;;;;5085747;28;20541;-76
2023/03/21 00:16:35;;;;;;;9.80;3.33;;;;;;;;;;5086205;28;20411;-75
2023/03/21 00:19:09;;;;;;;9.93;3.50;;;;;;;;;;5085886;28;20047;-74
2023/03/21 00:21:41;;;;;;;10.27;3.53;;;;;;;;;;5086279;28;20720;-75
2023/03/21 00:24:31;;;;;;;9.95;3.60;;;;;;;;;;5086230;28;20080;-76
2023/03/21 00:27:02;;;;;;;10.75;3.75;;;;;;;;;;5068478;28;20048;-72
2023/03/21 00:29:55;;;;;;;6.63;3.30;;;;;;;;;;5071075;28;20048;-73
2023/03/21 00:32:27;;;;;;;5.78;3.55;;;;;;;;;;5068629;28;20056;-77
2023/03/21 00:34:57;;;;;;;13.48;3.70;;;;;;;;;;5068490;28;20059;-73
2023/03/21 00:37:50;;;;;;;13.43;3.78;;;;;;;;;;5085815;28;20052;-76
2023/03/21 00:40:20;;;;;;;9.60;3.80;;;;;;;;;;5086143;28;20043;-76
2023/03/21 00:43:01;;;;;;;;;;;;;;;;;;5084780;28;20048;-76
2023/03/21 00:45:33;;;;;;;13.13;3.88;;;;;;;;;;5067491;28;19920;-73
2023/03/21 00:48:06;;;;;;;5.88;3.22;;;;;;;;;;5086763;28;20051;-76
2023/03/21 00:50:37;;;;;;;10.43;3.35;;;;;;;;;;5072542;28;20044;-74
2023/03/21 00:53:08;;;;;;;5.82;3.05;;;;;;;;;;5089569;28;20392;-74
2023/03/21 00:55:40;;;;;;;7.88;2.90;;;;;;;;;;5089768;28;20044;-75
2023/03/21 00:58:11;;;;;;;8.52;3.42;;;;;;;;;;5089390;28;20044;-73
2023/03/21 01:00:42;;;;;;;11.35;3.60;;;;;;;;;;5089193;28;20040;-74
2023/03/21 01:03:14;;;;;;;8.68;3.63;;;;;;;;;;5089278;28;20415;-74
2023/03/21 01:06:05;;;;;;;9.07;2.65;;;;;;;;;;5070543;28;20056;-73
2023/03/21 01:08:42;;;;;;;6.55;3.00;;;;;;;;;;5069636;28;20490;-74
2023/03/21 01:11:24;;;;;;;9.57;3.03;;;;;;;;;;5089031;28;20048;-73
2023/03/21 01:13:55;;;;;;;13.98;3.42;;;;;;;;;;5088779;28;20048;-72
2023/03/21 01:16:47;;;;;;;9.63;2.75;;;;;;;;;;5089466;28;20406;-76
2023/03/21 01:19:21;;;;;;;9.38;2.92;;;;;;;;;;5069831;28;20056;-77
2023/03/21 01:22:05;;;;;;;11.85;3.17;;;;;;;;;;5088647;28;20040;-74
2023/03/21 01:24:35;;;;;;;9.02;3.15;;;;;;;;;;5087907;28;20430;-73
2023/03/21 01:27:21;;;;;;;8.70;2.65;;;;;;;;;;5088537;28;20055;-76
2023/03/21 01:29:51;;;;;;;17.92;3.83;;;;;;;;;;5069737;28;20048;-76
2023/03/21 01:32:23;;;;;;;18.98;3.13;;;;;;;;;;5070709;28;20048;-74
2023/03/21 01:34:53;;;;;;;7.63;2.08;;;;;;;;;;5089475;28;20052;-79
2023/03/21 01:37:25;;;;;;;15.18;2.67;;;;;;;;;;5086250;28;20511;-73
2023/03/21 01:39:55;;;;;;;10.85;2.80;;;;;;;;;;5089195;28;20040;-76
2023/03/21 01:42:26;;;;;;;10.73;2.70;;;;;;;;;;5070717;28;20044;-76
2023/03/21 01:44:56;;;;;;;12.68;2.80;;;;;;;;;;5087687;28;20048;-74
2023/03/21 01:47:35;;;;;;;8.65;2.95;;;;;;;;;;5070711;28;20063;-75
2023/03/21 01:50:26;;;;;;;9.85;2.40;;;;;;;;;;5088462;28;20052;-72
2023/03/21 01:53:12;;;;;;;13.85;3.53;;;;;;;;;;5070016;28;20052;-74
2023/03/21 01:55:43;;;;;;;7.78;3.00;;;;;;;;;;5070927;28;20059;-73
2023/03/21 01:58:40;;;;;;;11.18;2.72;;;;;;;;;;5058296;28;20059;-75
2023/03/21 02:01:44;;;;;;;9.82;3.15;;;;;;;;;;5054914;28;20396;-77
2023/03/21 02:04:21;;;;;;;9.38;2.70;;;;;;;;;;5070702;28;20052;-75
2023/03/21 02:07:11;;;;;;;7.82;2.55;;;;;;;;;;5070237;28;20410;-76
2023/03/21 02:09:53;;;;;;;8.77;2.22;;;;;;;;;;5069782;28;20055;-75
2023/03/21 02:12:26;;;;;;;10.50;2.50;;;;;;;;;;5069585;28;20063;-77
2023/03/21 02:14:57;;;;;;;12.50;2.83;;;;;;;;;;5068189;28;20059;-74
2023/03/21 02:18:12;;;;;;;12.13;2.20;;;;;;;;;;5072692;28;20438;-77
2023/03/21 02:21:28;;;;;;;8.05;2.35;;;;;;;;;;5087665;28;20048;-75
2023/03/21 02:24:23;;;;;;;13.13;2.72;;;;;;;;;;5068988;28;20055;-75
2023/03/21 02:27:14;;;;;;;11.57;2.85;;;;;;;;;;5087671;28;20122;-77
2023/03/21 02:30:00;;;;;;;10.85;3.72;;;;;;;;;;5069712;28;20052;-74
2023/03/21 02:32:32;;;;;;;;;;;;;;;;;;5069983;28;20130;-76
2023/03/21 02:35:20;;;;;;;8.23;3.00;;;;;;;;;;5069111;28;19924;-74
2023/03/21 02:38:15;;;;;;;8.40;2.90;;;;;;;;;;5068402;28;20086;-75
2023/03/21 02:41:07;;;;;;;10.68;2.75;;;;;;;;;;5087951;28;20474;-73
2023/03/21 02:44:11;;;;;;;11.27;3.20;;;;;;;;;;5046089;28;20056;-75
2023/03/21 02:47:07;;;;;;;15.27;3.03;;;;;;;;;;5069241;28;20055;-76
2023/03/21 02:50:05;;;;;;;12.50;3.40;;;;;;;;;;5068520;28;20052;-78
2023/03/21 02:52:39;;;;;;;10.07;2.83;;;;;;;;;;5062581;28;20051;-74
2023/03/21 02:55:21;;;;;;;11.45;3.10;;;;;;;;;;5068580;28;20062;-76
2023/03/21 02:58:09;;;;;;;7.25;2.85;;;;;;;;;;5068785;28;20082;-76
2023/03/21 03:00:48;;;;;;;10.23;2.72;;;;;;;;;;5069018;28;20043;-76
2023/03/21 03:03:29;;;;;;;10.55;2.80;;;;;;;;;;5068979;28;20067;-76
2023/03/21 03:06:16;;;;;;;12.15;2.75;;;;;;;;;;5068416;28;20056;-77
2023/03/21 03:09:31;;;;;;;13.55;3.08;;;;;;;;;;5068765;28;20048;-76
2023/03/21 03:12:17;;;;;;;7.88;3.10;;;;;;;;;;5066433;28;20056;-77
2023/03/21 03:15:01;;;;;;;14.55;3.05;;;;;;;;;;5087029;28;20231;-74
2023/03/21 03:17:54;;;;;;;10.55;3.10;;;;;;;;;;5068754;28;20058;-75
2023/03/21 03:20:43;;;;;;;7.65;3.13;;;;;;;;;;5086757;28;20036;-79
2023/03/21 03:23:35;;;;;;;10.75;3.33;;;;;;;;;;5068829;28;20063;-77
2023/03/21 03:26:12;;;;;;;12.00;3.28;;;;;;;;;;5087350;28;20059;-78
2023/03/21 03:28:49;;;;;;;10.75;3.05;;;;;;;;;;5068041;28;20063;-75
2023/03/21 03:31:29;;;;;;;7.47;3.10;;;;;;;;;;5068726;28;20047;-77
2023/03/21 03:34:08;;;;;;;14.77;3.88;;;;;;;;;;5068064;28;20526;-75
2023/03/21 03:36:46;;;;;;;13.45;3.42;;;;;;;;;;5085150;28;20048;-76
2023/03/21 03:39:18;;;;;;;9.07;3.70;;;;;;;;;;5048116;28;20054;-76
2023/03/21 03:42:23;;;;;;;10.35;2.90;;;;;;;;;;5064902;28;20053;-76
2023/03/21 03:45:11;;;;;;;6.68;3.08;;;;;;;;;;5065222;28;20064;-77
2023/03/21 03:48:27;;;;;;;10.55;3.58;;;;;;;;;;5066681;28;20056;-77
2023/03/21 03:51:06;;;;;;;5.65;2.88;;;;;;;;;;5065303;28;20065;-77
2023/03/21 03:54:05;;;;;;;7.47;3.25;;;;;;;;;;5066114;28;20049;-79
2023/03/21 03:56:37;;;;;;;15.73;3.78;;;;;;;;;;5066240;28;20040;-78
2023/03/21 03:59:08;;;;;;;9.38;2.97;;;;;;;;;;5064847;28;20553;-77
2023/03/21 04:01:53;;;;;;;12.73;3.35;;;;;;;;;;5065326;28;20060;-74
2023/03/21 04:04:28;;;;;;;16.88;3.50;;;;;;;;;;5064310;28;20052;-77
2023/03/21 04:07:02;;;;;;;16.98;3.47;;;;;;;;;;5063876;28;20409;-78
2023/03/21 04:09:33;;;;;;;7.18;3.30;;;;;;;;;;5066109;28;20408;-73
2023/03/21 04:12:16;;;;;;;12.43;3.30;;;;;;;;;;5064283;28;20063;-75
2023/03/21 04:15:07;;;;;;;9.13;2.83;;;;;;;;;;5063911;28;20059;-75
2023/03/21 04:17:44;;;;;;;12.57;3.20;;;;;;;;;;5064421;28;20053;-75
2023/03/21 04:20:15;;;;;;;13.25;3.58;;;;;;;;;;5067290;28;20055;-75
2023/03/21 04:23:05;;;;;;;10.40;2.85;;;;;;;;;;5067270;28;20059;-75
2023/03/21 04:25:36;;;;;;;5.95;2.85;;;;;;;;;;5067801;28;20053;-75
2023/03/21 04:28:22;;;;;;;11.63;3.53;;;;;;;;;;5068277;28;20078;-77
2023/03/21 04:31:16;;;;;;;14.85;3.75;;;;;;;;;;5064013;28;20056;-75
2023/03/21 04:34:08;;;;;;;9.68;3.45;;;;;;;;;;5053690;28;20566;-77
2023/03/21 04:36:46;;;;;;;12.40;3.15;;;;;;;;;;5067860;28;20057;-77
2023/03/21 04:39:17;;;;;;;18.65;3.00;;;;;;;;;;5067633;28;20083;-76
2023/03/21 04:41:50;;;;;;;8.48;3.08;;;;;;;;;;5067957;28;20056;-77
2023/03/21 04:44:22;;;;;;;10.90;3.45;;;;;;;;;;5067456;28;20053;-76
2023/03/21 04:46:52;;;;;;;9.25;2.90;;;;;;;;;;5068175;28;20411;-74
2023/03/21 04:49:22;;;;;;;6.20;2.50;;;;;;;;;;5068075;28;20080;-79
2023/03/21 04:51:53;;;;;;;16.77;2.58;;;;;;;;;;5069921;28;20384;-75
2023/03/21 04:54:23;;;;;;;10.52;3.15;;;;;;;;;;5069140;28;20044;-75
2023/03/21 04:56:54;;;;;;;14.77;2.67;;;;;;;;;;5069709;28;20048;-77
2023/03/21 04:59:27;;;;;;;12.02;2.55;;;;;;;;;;5067317;28;20040;-75
2023/03/21 05:01:58;;;;;;;8.73;2.95;;;;;;;;;;5067069;28;20411;-74
2023/03/21 05:04:31;;;;;;;10.80;2.60;;;;;;;;;;5067673;28;20049;-76
2023/03/21 05:07:01;;;;;;;7.60;2.53;;;;;;;;;;5068820;28;20036;-75
2023/03/21 05:09:32;;;;;;;12.48;2.90;;;;;;;;;;5067238;28;20044;-75
2023/03/21 05:12:04;;;;;;;14.85;3.45;;;;;;;;;;5070010;28;20044;-78
2023/03/21 05:14:36;;;;;;;9.65;3.05;;;;;;;;;;5067080;28;20439;-74
2023/03/21 05:17:06;;;;;;;14.00;2.88;;;;;;;;;;5067357;28;20060;-78
2023/03/21 05:19:39;;;;;;;9.00;3.05;;;;;;;;;;5066824;28;20514;-78
2023/03/21 05:22:10;;;;;;;17.50;3.45;;;;;;;;;;5069150;28;20056;-75
2023/03/21 05:24:42;;;;;;;11.10;2.72;;;;;;;;;;5067568;28;20060;-75
2023/03/21 05:27:33;;;;;;;14.95;2.70;;;;;;;;;;5067130;28;20055;-78
2023/03/21 05:30:17;;;;;;;11.23;3.03;;;;;;;;;;5066805;28;20538;-76
2023/03/21 05:32:50;;;;;;;10.93;2.70;;;;;;;;;;5067271;28;20053;-76
2023/03/21 05:35:20;;;;;;;14.55;2.80;;;;;;;;;;5066335;28;20053;-76
2023/03/21 05:37:52;;;;;;;7.75;2.40;;;;;;;;;;5066973;28;20063;-75
2023/03/21 05:40:25;;;;;;;10.82;2.42;;;;;;;;;;5066611;28;20040;-76
2023/03/21 05:42:58;;;;;;;14.57;2.55;;;;;;;;;;5066355;28;20063;-74
2023/03/21 05:45:30;;;;;;;13.63;2.35;;;;;;;;;;5068566;28;20040;-78
2023/03/21 05:48:02;;;;;;;10.93;2.63;;;;;;;;;;5066821;28;20533;-76
2023/03/21 05:50:38;;;;;;;8.43;2.38;;;;;;;;;;5066384;28;21107;-77
2023/03/21 05:53:14;;;;;;;12.85;2.50;;;;;;;;;;5066734;28;20053;-77
2023/03/21 05:55:45;;;;;;;11.73;2.53;;;;;;;;;;5066665;28;20060;-75
2023/03/21 05:58:32;;;;;;;17.65;2.75;;;;;;;;;;5066081;28;20057;-78
2023/03/21 06:01:03;;;;;;;14.45;2.80;;;;;;;;;;5066446;28;20047;-75
2023/03/21 06:03:35;;;;;;;11.98;3.05;;;;;;;;;;5082491;28;20045;-78
2023/03/21 06:06:16;;;;;;;11.13;2.50;;;;;;;;;;5067112;28;20411;-77
2023/03/21 06:08:53;;;;;;;11.05;2.92;;;;;;;;;;5066449;28;20391;-76
2023/03/21 06:11:30;;;;;;;11.25;3.17;;;;;;;;;;5066397;28;20443;-77
2023/03/21 06:14:30;;;;;;;9.40;2.50;;;;;;;;;;5054858;28;21024;-75
2023/03/21 06:17:30;;;;;;;18.77;2.75;;;;;;;;;;5050465;28;20534;-75
2023/03/21 06:20:07;;;;;;;7.00;2.22;;;;;;;;;;5065654;28;20534;-77
2023/03/21 06:22:43;;;;;;;8.13;2.90;;;;;;;;;;5082474;28;20059;-76
2023/03/21 06:25:13;;;;;;;27.83;3.33;;;;;;;;;;5067739;28;20040;-75
2023/03/21 06:27:45;;;;;;;7.15;2.13;;;;;;;;;;5066229;28;20064;-78
2023/03/21 06:30:18;;;;;;;8.82;2.33;;;;;;;;;;5082562;28;20060;-74
2023/03/21 06:33:11;;;;;;;;;;;;;;;;;;5066784;28;20059;-78
2023/03/21 06:35:42;;;;;;;11.00;2.50;;;;;;;;;;5065498;28;19920;-76
2023/03/21 06:38:14;;;;;;;8.13;2.35;;;;;;;;;;5065371;28;20056;-75
2023/03/21 06:40:46;;;;;;;5.25;2.45;;;;;;;;;;5064828;28;20523;-76
2023/03/21 06:43:16;;;;;;;13.02;2.90;;;;;;;;;;5067853;28;20045;-75
2023/03/21 06:45:47;;;;;;;13.40;2.42;;;;;;;;;;5064444;28;20427;-74
2023/03/21 06:48:18;;;;;;;8.93;2.30;;;;;;;;;;5067526;28;20048;-75
2023/03/21 06:50:51;;;;;;;11.18;2.63;;;;;;;;;;5067812;28;20630;-74
2023/03/21 06:53:26;;;;;;;11.65;2.92;;;;;;;;;;5064745;28;20048;-77
2023/03/21 06:56:18;;;;;;;10.05;2.30;;;;;;;;;;5065618;28;20059;-76
2023/03/21 06:58:49;;;;;;;9.65;2.50;;;;;;;;;;5066137;28;20419;-74
2023/03/21 07:01:42;;;;;;;23.00;3.20;;;;;;;;;;5057186;28;20048;-79
2023/03/21 07:04:14;;;;;;;13.23;2.45;;;;;;;;;;5066047;28;20075;-77
2023/03/21 07:06:44;;;;;;;12.00;2.13;;;;;;;;;;5066767;28;20044;-77
2023/03/21 07:09:18;;;;;;;7.22;2.30;;;;;;;;;;5065923;28;20439;-75
2023/03/21 07:11:52;;;;;;;15.10;2.42;;;;;;;;;;5065104;28;20056;-75
2023/03/21 07:14:26;;;;;;;6.63;2.90;;;;;;;;;;5065072;28;20053;-75
2023/03/21 07:16:56;;;;;;;10.70;3.00;;;;;;;;;;5065694;28;20511;-75
2023/03/21 07:19:26;;;;;;;10.90;2.08;;;;;;;;;;5067006;28;20044;-77
2023/03/21 07:22:00;;;;;;;9.95;2.50;;;;;;;;;;5066921;28;20400;-76
2023/03/21 07:24:31;;;;;;;13.90;2.40;;;;;;;;;;5066705;28;20044;-76
2023/03/21 07:27:02;;;;;;;15.85;2.30;;;;;;;;;;5065313;28;20052;-75
2023/03/21 07:29:33;;;;;;;11.10;2.40;;;;;;;;;;5065148;28;20455;-75
2023/03/21 07:32:04;;;;;;;18.02;2.60;;;;;;;;;;5066757;28;20052;-77
2023/03/21 07:34:34;;;;;;;9.95;2.15;;;;;;;;;;5066437;28;20045;-77
2023/03/21 07:37:05;;;;;;;10.00;2.35;;;;;;;;;;5064468;28;20048;-78
2023/03/21 07:39:37;;;;;;;9.82;2.75;;;;;;;;;;5085041;28;20055;-77
2023/03/21 07:42:07;;;;;;;13.20;2.35;;;;;;;;;;5068263;28;20048;-78
2023/03/21 07:44:45;;;;;;;11.02;2.55;;;;;;;;;;5068135;28;20430;-75
2023/03/21 07:47:15;;;;;;;6.28;2.35;;;;;;;;;;5086896;28;20874;-77
2023/03/21 07:49:48;;;;;;;6.20;2.13;;;;;;;;;;5086605;28;20764;-74
2023/03/21 07:52:18;;;;;;;9.15;2.25;;;;;;;;;;5087265;28;20051;-75
2023/03/21 07:54:48;;;;;;;10.95;2.22;;;;;;;;;;5069247;28;20051;-75
2023/03/21 07:57:19;;;;;;;8.55;2.25;;;;;;;;;;5088035;28;20402;-75
2023/03/21 07:59:49;;;;;;;8.23;2.30;;;;;;;;;;5090571;28;20059;-76
2023/03/21 08:02:20;;;;;;;12.38;2.58;;;;;;;;;;5089008;28;20056;-77
2023/03/21 08:04:51;;;;;;;12.95;2.13;;;;;;;;;;5090674;28;20056;-77
2023/03/21 08:07:21;;;;;;;6.75;1.65;;;;;;;;;;5090557;28;20055;-76
2023/03/21 08:09:52;;;;;;;11.02;2.70;;;;;;;;;;5089905;28;20067;-76
2023/03/21 08:12:23;;;;;;;10.60;2.40;;;;;;;;;;5090582;28;20048;-74
2023/03/21 08:14:54;;;;;;;8.38;2.10;;;;;;;;;;5090358;28;20048;-79
2023/03/21 08:17:23;;;;;;;10.75;2.80;;;;;;;;;;5091464;28;20055;-74
2023/03/21 08:19:54;;;;;;;13.70;2.55;;;;;;;;;;5090160;28;20044;-75
2023/03/21 08:22:25;;;;;;;14.32;2.20;;;;;;;;;;5090307;28;20052;-78
2023/03/21 08:24:56;;;;;;;13.18;2.13;;;;;;;;;;5090064;28;20044;-75
2023/03/21 08:27:26;;;;;;;14.20;2.20;;;;;;;;;;5089974;28;21118;-76
2023/03/21 08:29:57;;;;;;;15.95;2.20;;;;;;;;;;5071596;28;20052;-78
2023/03/21 08:32:31;;;;;;;6.50;2.08;;;;;;;;;;5090303;28;20043;-76
2023/03/21 08:35:03;;;;;;;7.90;2.15;;;;;;;;;;5054693;28;20450;-76
2023/03/21 08:37:34;;;;;;;4.55;2.28;;;;;;;;;;5089471;28;20048;-75
2023/03/21 08:40:08;;;;;;;7.60;2.38;;;;;;;;;;5090266;28;20052;-77
2023/03/21 08:42:41;;;;;;;7.28;2.03;;;;;;;;;;5089879;28;20051;-77
2023/03/21 08:45:14;;;;;;;12.43;3.00;;;;;;;;;;5090140;28;20048;-76
2023/03/21 08:47:45;;;;;;;11.10;2.72;;;;;;;;;;5090636;28;20050;-76
2023/03/21 08:50:18;;;;;;;11.05;2.22;;;;;;;;;;5089632;28;20055;-75
2023/03/21 08:52:49;;;;;;;12.02;2.15;;;;;;;;;;5089982;28;20036;-78
2023/03/21 08:55:20;;;;;;;12.70;2.33;;;;;;;;;;5089861;28;20048;-75
2023/03/21 08:57:51;;;;;;;15.95;3.28;;;;;;;;;;5089776;28;20059;-76
2023/03/21 09:00:23;;;;;;;11.52;2.47;;;;;;;;;;5089612;28;20521;-78
2023/03/21 09:02:54;;;;;;;7.32;2.15;;;;;;;;;;5072111;28;20052;-77
2023/03/21 09:05:27;;;;;;;8.68;2.33;;;;;;;;;;5089516;28;20059;-75
2023/03/21 09:07:57;;;;;;;13.50;2.40;;;;;;;;;;5089016;28;20048;-77
2023/03/21 09:10:27;;;;;;;8.27;2.47;;;;;;;;;;5088000;28;20598;-77
2023/03/21 09:12:57;;;;;;;9.77;2.53;;;;;;;;;;5089976;28;20044;-77
2023/03/21 09:15:29;;;;;;;9.98;2.20;;;;;;;;;;5055890;28;20048;-74
2023/03/21 09:18:12;;;;;;;15.50;2.50;;;;;;;;;;5089713;28;20057;-78
2023/03/21 09:20:44;;;;;;;11.55;2.20;;;;;;;;;;5089065;28;20530;-80
2023/03/21 09:23:14;;;;;;;14.18;2.45;;;;;;;;;;5070741;28;20048;-77
2023/03/21 09:25:47;;;;;;;10.75;3.13;;;;;;;;;;5088835;28;20047;-79
2023/03/21 09:28:18;;;;;;;14.05;2.90;;;;;;;;;;5089069;28;20052;-74
2023/03/21 09:30:50;;;;;;;14.27;2.30;;;;;;;;;;5089023;28;20044;-76
2023/03/21 09:33:24;;;;;;;11.98;2.85;;;;;;;;;;5089348;28;20044;-77
2023/03/21 09:35:56;;;;;;;14.10;2.78;;;;;;;;;;5088891;28;20063;-76
2023/03/21 09:38:29;;;;;;;14.80;2.95;;;;;;;;;;5089250;28;20067;-75
2023/03/21 09:41:17;;;;;;;14.45;2.42;;;;;;;;;;5089120;28;20048;-75
2023/03/21 09:44:23;;;;;;;10.30;2.67;;;;;;;;;;5088909;28;20402;-75
2023/03/21 09:47:33;;;;;;;14.60;3.20;;;;;;;;;;5089042;28;20498;-75
2023/03/21 09:50:37;;;;;;;11.15;3.00;;;;;;;;;;5087986;28;20048;-73
2023/03/21 09:53:35;;;;;;;10.90;2.58;;;;;;;;;;5035910;28;20059;-75
2023/03/21 09:56:10;;;;;;;15.43;3.25;;;;;;;;;;5088667;28;20410;-77
2023/03/21 09:58:55;;;;;;;6.32;2.53;;;;;;;;;;5088388;28;20044;-77
2023/03/21 10:01:34;;;;;;;8.23;1.92;;;;;;;;;;5087994;28;20050;-77
2023/03/21 10:04:06;;;;;;;9.23;2.90;;;;;;;;;;5088517;28;20039;-75
2023/03/21 10:06:41;;;;;;;10.82;3.33;;;;;;;;;;5088472;28;20040;-77
2023/03/21 10:09:20;;;;;;;7.90;3.10;;;;;;;;;;5088815;28;20044;-74
2023/03/21 10:12:02;;;;;;;13.15;3.40;;;;;;;;;;5069150;28;20056;-78
2023/03/21 10:14:44;;;;;;;12.20;2.65;;;;;;;;;;5088946;28;20040;-76
2023/03/21 10:17:33;;;;;;;20.35;4.03;;;;;;;;;;5087889;28;20048;-75
2023/03/21 10:20:24;;;;;;;11.38;3.25;;;;;;;;;;5087583;28;20044;-75
2023/03/21 10:22:56;;;;;;;17.65;5.88;;;;;;;;;;5088188;28;20047;-73
2023/03/21 10:25:39;;;;;;;12.02;3.83;;;;;;;;;;5094506;28;20051;-76
2023/03/21 10:28:15;;;;;;;19.98;4.60;;;;;;;;;;5107808;28;20501;-76
2023/03/21 10:30:58;;;;;;;12.57;3.25;;;;;;;;;;5107935;28;20387;-74
2023/03/21 10:33:42;;;;;;;14.73;3.53;;;;;;;;;;5108166;28;20040;-77
2023/03/21 10:36:26;;;;;;;9.85;2.72;;;;;;;;;;5108648;28;20055;-75
2023/03/21 10:38:58;;;;;;;12.05;3.10;;;;;;;;;;5107951;28;20055;-76
2023/03/21 10:41:29;;;;;;;14.68;2.90;;;;;;;;;;5108314;28;20070;-76
2023/03/21 10:44:13;;;;;;;15.73;4.95;;;;;;;;;;5108241;28;20047;-75
2023/03/21 10:46:55;;;;;;;11.20;3.08;;;;;;;;;;5088868;28;20051;-76
2023/03/21 10:49:30;;;;;;;12.75;5.70;;;;;;;;;;5108224;28;20767;-78
2023/03/21 10:52:11;;;;;;;9.48;2.70;;;;;;;;;;5088912;28;20413;-75
2023/03/21 10:54:41;;;;;;;12.77;2.97;;;;;;;;;;5107544;28;20114;-75
2023/03/21 10:57:22;;;;;;;12.90;3.03;;;;;;;;;;5088482;28;20521;-77
2023/03/21 10:59:57;;;;;;;10.02;3.05;;;;;;;;;;5089370;28;20053;-76
2023/03/21 11:02:36;;;;;;;12.43;2.90;;;;;;;;;;5108052;28;20044;-77
2023/03/21 11:05:18;;;;;;;17.38;2.70;;;;;;;;;;5089003;28;20065;-76
2023/03/21 11:08:14;;;;;;;8.98;2.20;;;;;;;;;;5107616;28;20040;-73
2023/03/21 11:11:14;;;;;;;8.40;1.70;;;;;;;;;;5098094;28;20563;-77
2023/03/21 11:13:54;;;;;;;10.10;1.80;;;;;;;;;;5107372;28;20044;-77
2023/03/21 11:16:42;;;;;;;7.55;1.75;;;;;;;;;;5088563;28;20062;-78
2023/03/21 11:19:26;;;;;;;7.95;1.67;;;;;;;;;;5107675;28;20466;-76
2023/03/21 11:21:58;;;;;;;9.93;1.58;;;;;;;;;;5107633;28;20508;-78
2023/03/21 11:24:30;;;;;;;7.15;1.38;;;;;;;;;;5107132;28;20048;-77
2023/03/21 11:27:06;;;;;;;7.70;1.20;;;;;;;;;;5107381;28;20040;-74
2023/03/21 11:29:45;;;;;;;10.07;1.77;;;;;;;;;;5107577;28;20417;-77
2023/03/21 11:32:31;;;;;;;7.00;1.45;;;;;;;;;;5106312;28;20051;-74
2023/03/21 11:35:16;;;;;;;4.85;1.65;;;;;;;;;;5107429;28;20044;-76
2023/03/21 11:37:56;;;;;;;10.85;1.55;;;;;;;;;;5105524;28;20060;-76
2023/03/21 11:40:35;;;;;;;7.80;1.40;;;;;;;;;;5088384;28;20066;-76
2023/03/21 11:43:16;;;;;;;8.55;1.45;;;;;;;;;;5107352;28;20066;-74
2023/03/21 11:46:13;;;;;;;10.50;1.67;;;;;;;;;;5107019;28;20401;-77
2023/03/21 11:48:49;;;;;;;5.25;1.33;;;;;;;;;;5107468;28;20043;-75
2023/03/21 11:51:19;;;;;;;4.70;1.10;;;;;;;;;;5106797;28;20051;-78
2023/03/21 11:54:21;;;;;;;7.93;2.00;;;;;;;;;;5107896;28;20413;-77
2023/03/21 11:56:57;;;;;;;6.25;1.40;;;;;;;;;;5079544;28;20378;-79
2023/03/21 11:59:30;;;;;;;7.90;1.50;;;;;;;;;;5106955;28;20048;-75
2023/03/21 12:02:03;;;;;;;9.07;1.83;;;;;;;;;;5107881;28;20055;-75
2023/03/21 12:05:01;;;;;;;8.65;1.77;;;;;;;;;;5090063;28;20532;-76
2023/03/21 12:07:47;;;;;;;6.25;1.30;;;;;;;;;;5107926;28;20044;-76
2023/03/21 12:10:25;;;;;;;5.45;1.50;;;;;;;;;;5107179;28;20498;-76
2023/03/21 12:13:09;;;;;;;6.00;1.42;;;;;;;;;;5108607;28;20036;-78
2023/03/21 12:16:04;;;;;;;5.60;1.20;;;;;;;;;;5108118;28;20050;-78
2023/03/21 12:19:00;;;;;;;10.10;1.30;;;;;;;;;;5107882;28;20048;-77
2023/03/21 12:21:37;;;;;;;9.43;3.45;;;;;;;;;;5110512;28;20059;-76
2023/03/21 12:24:13;;;;;;;10.88;1.42;;;;;;;;;;5108018;28;20052;-77
2023/03/21 12:27:06;;;;;;;7.18;1.33;;;;;;;;;;5108192;28;20075;-75
2023/03/21 12:30:16;;;;;;;5.45;1.42;;;;;;;;;;5069633;28;20059;-77
2023/03/21 12:33:29;;;;;;;7.57;1.40;;;;;;;;;;5090586;28;20391;-74
2023/03/21 12:36:07;;;;;;;2.83;0.93;;;;;;;;;;5108558;28;20055;-76
2023/03/21 12:38:53;;;;;;;8.30;1.30;;;;;;;;;;5108290;28;20055;-76
2023/03/21 12:41:39;;;;;;;6.05;1.20;;;;;;;;;;5107999;28;20040;-77
2023/03/21 12:44:15;;;;;;;5.05;1.15;;;;;;;;;;5094348;28;20051;-76
2023/03/21 12:46:51;;;;;;;;;;;;;;;;;;5094652;28;20058;-74
2023/03/21 12:49:47;;;;;;;4.72;1.10;;;;;;;;;;5113107;28;19927;-78
2023/03/21 12:52:33;;;;;;;7.38;1.27;;;;;;;;;;5093158;28;20616;-77
2023/03/21 12:55:20;;;;;;;9.50;1.50;;;;;;;;;;5094068;28;20051;-77
2023/03/21 12:58:00;;;;;;;7.45;1.15;;;;;;;;;;5111385;28;20070;-79
2023/03/21 13:00:42;;;;;;;4.78;1.00;;;;;;;;;;5112297;28;20040;-78
2023/03/21 13:03:42;;;;;;;4.32;0.90;;;;;;;;;;5112284;28;20047;-76
2023/03/21 13:06:17;;;;;;;7.97;1.60;;;;;;;;;;5110341;28;20042;-78
2023/03/21 13:09:15;;;;;;;4.40;1.10;;;;;;;;;;5092832;28;20044;-77
2023/03/21 13:11:59;;;;;;;3.67;1.10;;;;;;;;;;5111557;28;20051;-79
2023/03/21 13:14:39;;;;;;;9.32;1.42;;;;;;;;;;5112624;28;20052;-77
2023/03/21 13:17:22;;;;;;;3.22;1.10;;;;;;;;;;5091808;28;20056;-77
2023/03/21 13:20:12;;;;;;;4.63;0.95;;;;;;;;;;5111419;28;20048;-78
2023/03/21 13:22:43;;;;;;;3.90;1.30;;;;;;;;;;5110719;28;20386;-76
2023/03/21 13:25:21;;;;;;;6.38;1.50;;;;;;;;;;5109702;28;20044;-80
2023/03/21 13:27:54;;;;;;;5.68;1.27;;;;;;;;;;5110641;28;20055;-77
2023/03/21 13:30:27;;;;;;;4.13;1.05;;;;;;;;;;5110659;28;20044;-78
2023/03/21 13:33:16;;;;;;;3.70;0.88;;;;;;;;;;5111091;28;20520;-77
2023/03/21 13:36:03;;;;;;;2.95;1.13;;;;;;;;;;5109836;28;20055;-75
2023/03/21 13:38:38;;;;;;;3.67;0.75;;;;;;;;;;5109693;28;20063;-78
2023/03/21 13:41:15;;;;;;;5.82;0.90;;;;;;;;;;5109008;28;20532;-78
2023/03/21 13:44:04;;;;;;;6.00;0.90;;;;;;;;;;5091653;28;20051;-82
2023/03/21 13:46:44;;;;;;;3.33;0.95;;;;;;;;;;5111094;28;20402;-74
2023/03/21 13:49:26;;;;;;;5.03;1.05;;;;;;;;;;5110467;28;20051;-74
2023/03/21 13:51:58;;;;;;;2.75;0.75;;;;;;;;;;5090384;28;20047;-77
2023/03/21 13:54:55;;;;;;;8.32;1.23;;;;;;;;;;5108238;28;20048;-73
2023/03/21 13:57:30;;;;;;;2.17;0.70;;;;;;;;;;5109545;28;20873;-76
2023/03/21 14:00:33;;;;;;;;;;;;;;;;;;5110613;28;20406;-76
2023/03/21 14:03:12;;;;;;;3.13;0.95;;;;;;;;;;5066127;28;20033;-75
2023/03/21 14:05:50;;;;;;;2.05;0.98;;;;;;;;;;5109517;28;20044;-75
2023/03/21 14:08:21;;;;;;;4.43;1.00;;;;;;;;;;5109467;28;20075;-74
2023/03/21 14:11:13;;;;;;;2.90;1.10;;;;;;;;;;5094354;28;20055;-75
2023/03/21 14:13:45;;;;;;;3.20;0.90;;;;;;;;;;5110093;28;20044;-80
2023/03/21 14:16:21;;;;;;;5.45;1.27;;;;;;;;;;5109872;28;20054;-78
2023/03/21 14:18:56;;;;;;;3.47;0.88;;;;;;;;;;5109821;28;20409;-74
2023/03/21 14:21:30;;;;;;;5.30;1.10;;;;;;;;;;5093111;28;20501;-77
2023/03/21 14:24:07;;;;;;;1.65;0.70;;;;;;;;;;5109833;28;20039;-77
2023/03/21 14:26:45;;;;;;;3.67;1.00;;;;;;;;;;5109662;28;20490;-76
2023/03/21 14:29:47;;;;;;;3.88;0.88;;;;;;;;;;5112039;28;20047;-73
2023/03/21 14:32:22;;;;;;;3.75;0.77;;;;;;;;;;5108824;28;20067;-74
2023/03/21 14:34:55;;;;;;;2.28;0.88;;;;;;;;;;5090192;28;20054;-77
2023/03/21 14:37:45;;;;;;;6.82;1.10;;;;;;;;;;5091567;28;20063;-76
2023/03/21 14:40:25;;;;;;;3.95;1.17;;;;;;;;;;5110902;28;20058;-80
2023/03/21 14:42:56;;;;;;;4.05;0.93;;;;;;;;;;5110944;28;20048;-79
2023/03/21 14:45:29;;;;;;;3.67;1.10;;;;;;;;;;5110229;28;20866;-79
2023/03/21 14:48:05;;;;;;;5.05;1.00;;;;;;;;;;5110882;28;20054;-76
2023/03/21 14:50:52;;;;;;;2.00;0.80;;;;;;;;;;5077548;28;20056;-78
2023/03/21 14:53:22;;;;;;;1.60;0.65;;;;;;;;;;5112961;28;20052;-73
2023/03/21 14:55:56;;;;;;;2.72;0.90;;;;;;;;;;5110838;28;20040;-78
2023/03/21 14:58:29;;;;;;;3.10;0.70;;;;;;;;;;5109999;28;20055;-79
2023/03/21 15:01:06;;;;;;;2.58;1.10;;;;;;;;;;5094225;28;20521;-75
2023/03/21 15:03:38;;;;;;;2.30;1.00;;;;;;;;;;5110004;28;20063;-75
2023/03/21 15:06:13;;;;;;;2.20;0.57;;;;;;;;;;5090245;28;20055;-76
2023/03/21 15:08:58;;;;;;;3.35;0.75;;;;;;;;;;5109673;28;20043;-76
2023/03/21 15:11:38;;;;;;;2.92;0.88;;;;;;;;;;5109470;28;20397;-77
2023/03/21 15:14:13;;;;;;;3.72;1.02;;;;;;;;;;5109273;28;20044;-77
2023/03/21 15:16:44;;;;;;;1.42;0.77;;;;;;;;;;5110023;28;20703;-76
2023/03/21 15:19:18;;;;;;;3.05;0.85;;;;;;;;;;5089537;28;20085;-76
2023/03/21 15:21:54;;;;;;;1.88;0.90;;;;;;;;;;5108532;28;20054;-80
2023/03/21 15:24:49;;;;;;;2.00;0.60;;;;;;;;;;5109339;28;20054;-76
2023/03/21 15:27:24;;;;;;;2.65;0.90;;;;;;;;;;5109480;28;20387;-80
2023/03/21 15:29:55;;;;;;;6.00;1.15;;;;;;;;;;5090585;28;20173;-78
2023/03/21 15:32:29;;;;;;;2.45;0.85;;;;;;;;;;5110825;28;20044;-78
2023/03/21 15:35:12;;;;;;;2.17;0.88;;;;;;;;;;5108979;28;20570;-75
2023/03/21 15:37:51;;;;;;;3.20;0.75;;;;;;;;;;5090833;28;20066;-76
2023/03/21 15:40:30;;;;;;;2.60;0.90;;;;;;;;;;5109092;28;20054;-75
2023/03/21 15:43:19;;;;;;;3.97;1.10;;;;;;;;;;5108620;28;20047;-74
2023/03/21 15:45:56;;;;;;;3.65;0.77;;;;;;;;;;5110430;28;20046;-77
2023/03/21 15:48:27;;;;;;;3.72;0.95;;;;;;;;;;5108998;28;20113;-78